Time;durP1;ratioP1;P1;durP2;ratioP2;P2;SDS_P1;SDS_P2;PMS_P1;PMS_P2;Temp;Humidity;BMP_temperature;BMP_pressure;BME280_temperature;BME280_humidity;BME280_pressure;Samples;Min_cycle;Max_cycle;Signal;HPM_P1;HPM_P2
2024/01/03 00:00:06;;;;;;;18.13;10.05;;;;;;;;;;1035016;28;20100;-66
2024/01/03 00:00:43;;;;;;;22.92;12.57;;;;;;;;;;1033090;28;20099;-66
2024/01/03 00:01:34;;;;;;;21.52;10.50;;;;;;;;;;1033745;28;20064;-66
2024/01/03 00:02:05;;;;;;;19.55;11.32;;;;;;;;;;1034580;28;20053;-65
2024/01/03 00:02:36;;;;;;;18.33;11.52;;;;;;;;;;1033782;28;20120;-66
2024/01/03 00:03:06;;;;;;;18.95;11.63;;;;;;;;;;1033592;28;20120;-66
2024/01/03 00:03:37;;;;;;;20.42;11.75;;;;;;;;;;1032973;28;20060;-66
2024/01/03 00:04:09;;;;;;;23.20;12.60;;;;;;;;;;1034655;28;20133;-67
2024/01/03 00:04:40;;;;;;;21.23;11.25;;;;;;;;;;1035170;28;20053;-66
2024/01/03 00:05:10;;;;;;;23.42;11.45;;;;;;;;;;1035362;28;20073;-67
2024/01/03 00:05:41;;;;;;;20.48;11.63;;;;;;;;;;1037139;28;20045;-66
2024/01/03 00:06:14;;;;;;;20.85;11.57;;;;;;;;;;1037229;28;20053;-67
2024/01/03 00:06:46;;;;;;;22.85;12.18;;;;;;;;;;1036403;28;20721;-66
2024/01/03 00:07:17;;;;;;;24.20;13.00;;;;;;;;;;1034606;28;20073;-67
2024/01/03 00:07:48;;;;;;;20.50;12.20;;;;;;;;;;1034494;28;20061;-67
2024/01/03 00:08:26;;;;;;;24.02;12.05;;;;;;;;;;1034737;28;20565;-66
2024/01/03 00:08:57;;;;;;;21.70;11.75;;;;;;;;;;1035915;28;20056;-66
2024/01/03 00:09:27;;;;;;;23.92;12.25;;;;;;;;;;1034627;28;20055;-66
2024/01/03 00:10:00;;;;;;;22.77;11.57;;;;;;;;;;1034295;28;20147;-65
2024/01/03 00:10:41;;;;;;;19.17;11.90;;;;;;;;;;1034270;28;20115;-67
2024/01/03 00:11:20;;;;;;;21.35;11.35;;;;;;;;;;1033702;28;20054;-66
2024/01/03 00:11:51;;;;;;;19.55;11.52;;;;;;;;;;1033790;28;20095;-66
2024/01/03 00:12:25;;;;;;;18.40;10.88;;;;;;;;;;1034486;28;20053;-66
2024/01/03 00:12:55;;;;;;;20.52;11.75;;;;;;;;;;1034007;28;20564;-66
2024/01/03 00:13:29;;;;;;;22.42;12.98;;;;;;;;;;1034613;28;20520;-66
2024/01/03 00:14:04;;;;;;;22.15;11.63;;;;;;;;;;1034117;28;20711;-67
2024/01/03 00:14:34;;;;;;;26.83;12.68;;;;;;;;;;1034615;28;20099;-66
2024/01/03 00:15:35;;;;;;;23.38;11.68;;;;;;;;;;1034679;28;20057;-67
2024/01/03 00:16:06;;;;;;;20.67;11.30;;;;;;;;;;1033863;28;20049;-67
2024/01/03 00:16:40;;;;;;;20.65;12.70;;;;;;;;;;1034401;28;20049;-66
2024/01/03 00:17:11;;;;;;;20.63;11.93;;;;;;;;;;1034307;28;20060;-67
2024/01/03 00:17:43;;;;;;;21.00;12.43;;;;;;;;;;1034421;28;20243;-68
2024/01/03 00:18:30;;;;;;;23.75;11.80;;;;;;;;;;1033723;28;20129;-67
2024/01/03 00:19:02;;;;;;;22.40;12.07;;;;;;;;;;1033510;28;20046;-65
2024/01/03 00:19:35;;;;;;;20.75;11.88;;;;;;;;;;1033877;28;20049;-67
2024/01/03 00:20:08;;;;;;;22.60;11.15;;;;;;;;;;1035330;28;20125;-66
2024/01/03 00:20:38;;;;;;;23.30;12.50;;;;;;;;;;1034397;28;20095;-67
2024/01/03 00:21:10;;;;;;;25.08;13.27;;;;;;;;;;1034375;28;23306;-66
2024/01/03 00:21:40;;;;;;;22.70;12.00;;;;;;;;;;1034306;28;20049;-67
2024/01/03 00:22:14;;;;;;;18.63;12.07;;;;;;;;;;1034624;28;20049;-66
2024/01/03 00:22:45;;;;;;;25.38;11.38;;;;;;;;;;1034545;28;20094;-68
2024/01/03 00:23:16;;;;;;;20.13;11.65;;;;;;;;;;1034354;28;20053;-67
2024/01/03 00:23:52;;;;;;;20.98;11.05;;;;;;;;;;1034150;28;20414;-66
2024/01/03 00:24:23;;;;;;;21.08;12.25;;;;;;;;;;1036614;28;20045;-66
2024/01/03 00:24:53;;;;;;;22.90;12.07;;;;;;;;;;1036310;28;20053;-66
2024/01/03 00:25:28;;;;;;;18.25;11.25;;;;;;;;;;1038202;28;20065;-66
2024/01/03 00:25:59;;;;;;;19.90;11.18;;;;;;;;;;1035840;28;20053;-66
2024/01/03 00:26:30;;;;;;;22.30;11.50;;;;;;;;;;1034837;28;20045;-67
2024/01/03 00:27:02;;;;;;;18.95;11.65;;;;;;;;;;1033882;28;20054;-66
2024/01/03 00:27:33;;;;;;;19.77;11.68;;;;;;;;;;1033846;28;20061;-66
2024/01/03 00:28:03;;;;;;;17.55;11.60;;;;;;;;;;1035384;28;20069;-67
2024/01/03 00:28:34;;;;;;;18.88;11.88;;;;;;;;;;1033701;28;20058;-67
2024/01/03 00:29:05;;;;;;;23.92;11.35;;;;;;;;;;1033794;28;20074;-67
2024/01/03 00:29:53;;;;;;;21.08;11.15;;;;;;;;;;1032751;28;20054;-67
2024/01/03 00:30:23;;;;;;;17.20;11.10;;;;;;;;;;1035953;28;20060;-67
2024/01/03 00:30:55;;;;;;;23.98;12.60;;;;;;;;;;1034375;28;20045;-66
2024/01/03 00:31:25;;;;;;;19.08;11.18;;;;;;;;;;1034430;28;20049;-66
2024/01/03 00:31:55;;;;;;;21.17;12.52;;;;;;;;;;1034992;28;21415;-67
2024/01/03 00:32:26;;;;;;;20.02;11.13;;;;;;;;;;1033949;28;20041;-66
2024/01/03 00:32:56;;;;;;;23.92;11.90;;;;;;;;;;1034596;28;20045;-66
2024/01/03 00:33:27;;;;;;;16.38;11.15;;;;;;;;;;1033966;28;20049;-66
2024/01/03 00:33:57;;;;;;;22.80;12.82;;;;;;;;;;1033346;28;20200;-67
2024/01/03 00:34:41;;;;;;;19.98;11.60;;;;;;;;;;1033722;28;20155;-66
2024/01/03 00:35:12;;;;;;;19.75;11.50;;;;;;;;;;1033700;28;20045;-66
2024/01/03 00:35:43;;;;;;;20.48;11.60;;;;;;;;;;1034103;28;20042;-66
2024/01/03 00:36:15;;;;;;;21.10;11.95;;;;;;;;;;1034657;28;20046;-66
2024/01/03 00:36:53;;;;;;;21.92;11.45;;;;;;;;;;1035515;28;20046;-66
2024/01/03 00:37:26;;;;;;;18.73;11.10;;;;;;;;;;1035962;28;20063;-66
2024/01/03 00:37:56;;;;;;;23.42;12.77;;;;;;;;;;1035175;28;20053;-67
2024/01/03 00:38:27;;;;;;;18.42;11.40;;;;;;;;;;1035241;28;20053;-66
2024/01/03 00:38:58;;;;;;;17.40;10.82;;;;;;;;;;1035857;28;20056;-66
2024/01/03 00:39:32;;;;;;;22.13;11.93;;;;;;;;;;1035488;28;20139;-67
2024/01/03 00:40:05;;;;;;;20.73;11.43;;;;;;;;;;1036245;28;20053;-66
2024/01/03 00:40:50;;;;;;;20.85;11.60;;;;;;;;;;1033404;28;20057;-67
2024/01/03 00:41:21;;;;;;;19.77;10.35;;;;;;;;;;1035159;28;20053;-66
2024/01/03 00:41:51;;;;;;;21.77;11.18;;;;;;;;;;1033854;28;20076;-66
2024/01/03 00:42:23;;;;;;;20.17;11.55;;;;;;;;;;1034430;28;20054;-67
2024/01/03 00:42:53;;;;;;;18.20;11.75;;;;;;;;;;1036461;28;20136;-67
2024/01/03 00:43:24;;;;;;;18.63;11.10;;;;;;;;;;1038571;28;20049;-66
2024/01/03 00:43:54;;;;;;;18.90;10.85;;;;;;;;;;1036172;28;20051;-66
2024/01/03 00:44:25;;;;;;;21.27;11.93;;;;;;;;;;1038061;28;20049;-66
2024/01/03 00:44:55;;;;;;;19.60;11.32;;;;;;;;;;1037259;28;20053;-66
2024/01/03 00:45:26;;;;;;;20.00;11.48;;;;;;;;;;1035506;28;20453;-67
2024/01/03 00:45:57;;;;;;;19.23;11.57;;;;;;;;;;1034065;28;20050;-65
2024/01/03 00:46:27;;;;;;;17.27;11.27;;;;;;;;;;1034513;28;20049;-67
2024/01/03 00:46:58;;;;;;;21.02;11.98;;;;;;;;;;1033782;28;20056;-66
2024/01/03 00:47:29;;;;;;;19.10;12.20;;;;;;;;;;1033959;28;20045;-67
2024/01/03 00:48:00;;;;;;;19.77;11.85;;;;;;;;;;1033731;28;20058;-65
2024/01/03 00:48:31;;;;;;;19.02;10.45;;;;;;;;;;1035030;28;20046;-67
2024/01/03 00:49:02;;;;;;;21.38;12.30;;;;;;;;;;1033998;28;20065;-66
2024/01/03 00:49:33;;;;;;;16.98;10.68;;;;;;;;;;1033588;28;20058;-66
2024/01/03 00:50:04;;;;;;;20.80;12.07;;;;;;;;;;1033628;28;20054;-68
2024/01/03 00:50:35;;;;;;;17.15;11.05;;;;;;;;;;1034047;28;20045;-66
2024/01/03 00:51:06;;;;;;;21.02;12.07;;;;;;;;;;1034566;28;20050;-67
2024/01/03 00:51:37;;;;;;;21.25;11.55;;;;;;;;;;1032943;28;20524;-66
2024/01/03 00:52:09;;;;;;;18.90;11.88;;;;;;;;;;1033956;28;20401;-66
2024/01/03 00:52:39;;;;;;;19.75;10.85;;;;;;;;;;1033913;28;20052;-67
2024/01/03 00:53:12;;;;;;;17.98;10.75;;;;;;;;;;1034321;28;20060;-67
2024/01/03 00:53:43;;;;;;;18.13;10.43;;;;;;;;;;1034034;28;20110;-67
2024/01/03 00:54:14;;;;;;;20.60;11.45;;;;;;;;;;1034611;28;20049;-66
2024/01/03 00:54:45;;;;;;;21.52;10.85;;;;;;;;;;1033648;28;20049;-67
2024/01/03 00:55:16;;;;;;;18.33;11.30;;;;;;;;;;1034713;28;20054;-67
2024/01/03 00:55:46;;;;;;;18.48;11.52;;;;;;;;;;1034281;28;20061;-66
2024/01/03 00:56:18;;;;;;;22.88;12.00;;;;;;;;;;1035812;28;20060;-66
2024/01/03 00:56:49;;;;;;;19.20;11.18;;;;;;;;;;1034236;28;20049;-67
2024/01/03 00:57:20;;;;;;;20.90;11.60;;;;;;;;;;1034657;28;20064;-67
2024/01/03 00:57:50;;;;;;;18.42;11.48;;;;;;;;;;1033810;28;20045;-67
2024/01/03 00:58:21;;;;;;;20.92;11.63;;;;;;;;;;1035328;28;20045;-67
2024/01/03 00:58:52;;;;;;;18.10;10.68;;;;;;;;;;1034948;28;20655;-66
2024/01/03 00:59:22;;;;;;;19.08;11.50;;;;;;;;;;1034530;28;20058;-67
2024/01/03 00:59:53;;;;;;;18.73;11.18;;;;;;;;;;1033496;28;20161;-67
2024/01/03 01:00:24;;;;;;;19.20;11.82;;;;;;;;;;1034876;28;20064;-66
2024/01/03 01:00:54;;;;;;;18.08;11.80;;;;;;;;;;1033316;28;20108;-67
2024/01/03 01:01:25;;;;;;;21.13;11.45;;;;;;;;;;1033923;28;20529;-66
2024/01/03 01:01:57;;;;;;;21.95;11.25;;;;;;;;;;1033600;28;20045;-66
2024/01/03 01:02:28;;;;;;;18.33;10.15;;;;;;;;;;1033790;28;20042;-67
2024/01/03 01:02:59;;;;;;;23.05;11.13;;;;;;;;;;1033190;28;20054;-66
2024/01/03 01:03:29;;;;;;;20.25;12.35;;;;;;;;;;1034747;28;20057;-66
2024/01/03 01:04:00;;;;;;;19.13;10.85;;;;;;;;;;1034844;28;20069;-67
2024/01/03 01:04:31;;;;;;;23.60;11.38;;;;;;;;;;1037737;28;20132;-67
2024/01/03 01:05:02;;;;;;;19.63;10.80;;;;;;;;;;1034836;28;20065;-66
2024/01/03 01:05:33;;;;;;;18.70;10.77;;;;;;;;;;1034402;28;20054;-67
2024/01/03 01:06:04;;;;;;;19.83;11.60;;;;;;;;;;1033666;28;20191;-67
2024/01/03 01:06:35;;;;;;;18.90;12.02;;;;;;;;;;1035130;28;20049;-67
2024/01/03 01:07:05;;;;;;;16.73;11.00;;;;;;;;;;1035184;28;20049;-67
2024/01/03 01:07:36;;;;;;;20.55;10.75;;;;;;;;;;1036735;28;20055;-67
2024/01/03 01:08:06;;;;;;;19.00;12.02;;;;;;;;;;1036603;28;20045;-65
2024/01/03 01:08:37;;;;;;;18.67;11.23;;;;;;;;;;1036922;28;20043;-68
2024/01/03 01:09:08;;;;;;;18.40;11.52;;;;;;;;;;1035486;28;20049;-67
2024/01/03 01:09:39;;;;;;;18.42;11.32;;;;;;;;;;1033585;28;20049;-67
2024/01/03 01:10:09;;;;;;;18.10;11.20;;;;;;;;;;1034290;28;20041;-66
2024/01/03 01:10:40;;;;;;;18.23;11.02;;;;;;;;;;1034994;28;20049;-66
2024/01/03 01:11:10;;;;;;;18.55;11.02;;;;;;;;;;1035123;28;20054;-67
2024/01/03 01:11:41;;;;;;;17.67;11.50;;;;;;;;;;1033372;28;20119;-66
2024/01/03 01:12:13;;;;;;;18.85;10.73;;;;;;;;;;1036132;28;20042;-66
2024/01/03 01:12:43;;;;;;;19.70;11.88;;;;;;;;;;1034258;28;20053;-65
2024/01/03 01:13:13;;;;;;;18.00;10.95;;;;;;;;;;1034311;28;20140;-66
2024/01/03 01:13:44;;;;;;;16.33;10.85;;;;;;;;;;1033528;28;20430;-66
2024/01/03 01:14:15;;;;;;;17.58;10.73;;;;;;;;;;1035936;28;20149;-67
2024/01/03 01:14:45;;;;;;;19.63;11.52;;;;;;;;;;1035311;28;20418;-67
2024/01/03 01:15:16;;;;;;;24.10;10.80;;;;;;;;;;1035668;28;20061;-66
2024/01/03 01:15:46;;;;;;;17.83;11.02;;;;;;;;;;1034354;28;20140;-66
2024/01/03 01:16:17;;;;;;;20.02;10.93;;;;;;;;;;1033970;28;20086;-67
2024/01/03 01:16:47;;;;;;;21.38;11.80;;;;;;;;;;1034041;28;20053;-66
2024/01/03 01:17:17;;;;;;;22.00;11.57;;;;;;;;;;1034957;28;20064;-67
2024/01/03 01:17:48;;;;;;;17.30;10.85;;;;;;;;;;1035493;28;20143;-66
2024/01/03 01:18:19;;;;;;;19.10;11.13;;;;;;;;;;1036312;28;20041;-66
2024/01/03 01:18:49;;;;;;;19.65;11.27;;;;;;;;;;1035084;28;20123;-67
2024/01/03 01:19:20;;;;;;;19.15;11.95;;;;;;;;;;1034439;28;20056;-67
2024/01/03 01:19:50;;;;;;;18.90;11.18;;;;;;;;;;1034023;28;22716;-66
2024/01/03 01:20:21;;;;;;;17.35;11.07;;;;;;;;;;1034631;28;20444;-66
2024/01/03 01:20:51;;;;;;;21.67;11.32;;;;;;;;;;1033676;28;22062;-68
2024/01/03 01:21:22;;;;;;;17.50;11.18;;;;;;;;;;1034911;28;20557;-67
2024/01/03 01:21:53;;;;;;;18.55;11.25;;;;;;;;;;1033068;28;20065;-66
2024/01/03 01:22:25;;;;;;;17.95;11.02;;;;;;;;;;1035367;28;20046;-66
2024/01/03 01:22:56;;;;;;;22.02;11.68;;;;;;;;;;1033930;28;20046;-67
2024/01/03 01:23:26;;;;;;;21.50;10.73;;;;;;;;;;1034418;28;20069;-66
2024/01/03 01:23:57;;;;;;;25.50;11.75;;;;;;;;;;1034021;28;20045;-67
2024/01/03 01:24:27;;;;;;;19.08;11.15;;;;;;;;;;1036374;28;20394;-66
2024/01/03 01:24:58;;;;;;;19.80;11.38;;;;;;;;;;1038153;28;21677;-67
2024/01/03 01:25:28;;;;;;;20.20;10.85;;;;;;;;;;1035708;28;20085;-67
2024/01/03 01:25:59;;;;;;;18.60;11.00;;;;;;;;;;1034344;28;20053;-66
2024/01/03 01:26:29;;;;;;;19.52;11.18;;;;;;;;;;1036308;28;20064;-67
2024/01/03 01:27:00;;;;;;;17.83;10.52;;;;;;;;;;1034601;28;20160;-66
2024/01/03 01:27:30;;;;;;;18.85;11.50;;;;;;;;;;1035079;28;20037;-67
2024/01/03 01:28:01;;;;;;;17.70;10.23;;;;;;;;;;1033846;28;20053;-67
2024/01/03 01:28:31;;;;;;;20.10;11.13;;;;;;;;;;1036061;28;20516;-65
2024/01/03 01:29:02;;;;;;;18.00;11.27;;;;;;;;;;1033751;28;20053;-67
2024/01/03 01:29:33;;;;;;;18.70;11.30;;;;;;;;;;1034215;28;20073;-66
2024/01/03 01:30:04;;;;;;;17.35;10.88;;;;;;;;;;1035539;28;20057;-67
2024/01/03 01:30:34;;;;;;;18.38;11.50;;;;;;;;;;1034893;28;20061;-67
2024/01/03 01:31:05;;;;;;;19.17;11.30;;;;;;;;;;1034692;28;20115;-67
2024/01/03 01:31:35;;;;;;;17.13;11.32;;;;;;;;;;1034067;28;21709;-67
2024/01/03 01:32:06;;;;;;;18.35;11.52;;;;;;;;;;1034079;28;20052;-66
2024/01/03 01:32:36;;;;;;;19.35;11.30;;;;;;;;;;1035744;28;20529;-67
2024/01/03 01:33:07;;;;;;;21.52;10.77;;;;;;;;;;1036027;28;20064;-66
2024/01/03 01:33:37;;;;;;;20.13;10.52;;;;;;;;;;1035042;28;20046;-66
2024/01/03 01:34:08;;;;;;;20.75;11.65;;;;;;;;;;1035499;28;20512;-66
2024/01/03 01:34:38;;;;;;;17.42;11.18;;;;;;;;;;1034758;28;20076;-67
2024/01/03 01:35:09;;;;;;;18.80;10.65;;;;;;;;;;1035658;28;20573;-67
2024/01/03 01:35:39;;;;;;;20.73;11.07;;;;;;;;;;1034260;28;20060;-66
2024/01/03 01:36:10;;;;;;;20.98;10.82;;;;;;;;;;1034644;28;20490;-67
2024/01/03 01:36:40;;;;;;;21.80;11.75;;;;;;;;;;1033279;28;20395;-66
2024/01/03 01:37:11;;;;;;;18.77;11.10;;;;;;;;;;1034268;28;20123;-66
2024/01/03 01:37:42;;;;;;;18.90;10.93;;;;;;;;;;1038605;28;20051;-66
2024/01/03 01:38:12;;;;;;;18.92;10.77;;;;;;;;;;1040087;28;20053;-67
2024/01/03 01:38:44;;;;;;;20.98;10.48;;;;;;;;;;1040796;28;20045;-66
2024/01/03 01:39:14;;;;;;;19.23;10.98;;;;;;;;;;1039241;28;20111;-67
2024/01/03 01:39:45;;;;;;;18.02;11.30;;;;;;;;;;1036936;28;20049;-67
2024/01/03 01:40:15;;;;;;;18.67;10.20;;;;;;;;;;1035126;28;20045;-66
2024/01/03 01:40:48;;;;;;;18.25;11.13;;;;;;;;;;1034499;28;20073;-67
2024/01/03 01:41:19;;;;;;;17.17;9.82;;;;;;;;;;1033617;28;20058;-67
2024/01/03 01:41:49;;;;;;;16.52;10.82;;;;;;;;;;1036359;28;20172;-67
2024/01/03 01:42:20;;;;;;;17.30;11.15;;;;;;;;;;1036159;28;20136;-66
2024/01/03 01:42:50;;;;;;;20.85;11.30;;;;;;;;;;1035175;28;20045;-66
2024/01/03 01:43:20;;;;;;;18.33;11.10;;;;;;;;;;1035154;28;20049;-66
2024/01/03 01:43:51;;;;;;;16.90;11.32;;;;;;;;;;1034789;28;20459;-67
2024/01/03 01:44:22;;;;;;;21.45;11.48;;;;;;;;;;1037984;28;20601;-66
2024/01/03 01:44:52;;;;;;;19.92;11.02;;;;;;;;;;1036305;28;20096;-67
2024/01/03 01:45:23;;;;;;;18.00;10.55;;;;;;;;;;1036948;28;20057;-67
2024/01/03 01:45:53;;;;;;;18.23;9.98;;;;;;;;;;1036205;28;20111;-65
2024/01/03 01:46:24;;;;;;;19.65;10.63;;;;;;;;;;1037214;28;20103;-67
2024/01/03 01:46:56;;;;;;;17.75;10.15;;;;;;;;;;1033319;28;20095;-67
2024/01/03 01:47:27;;;;;;;16.85;10.77;;;;;;;;;;1033947;28;20095;-67
2024/01/03 01:47:58;;;;;;;16.92;10.45;;;;;;;;;;1035095;28;20060;-68
2024/01/03 01:48:28;;;;;;;17.55;11.45;;;;;;;;;;1036551;28;20041;-67
2024/01/03 01:48:59;;;;;;;18.55;10.60;;;;;;;;;;1034644;28;20069;-67
2024/01/03 01:49:29;;;;;;;16.30;10.38;;;;;;;;;;1033717;28;20140;-66
2024/01/03 01:50:00;;;;;;;14.73;10.00;;;;;;;;;;1033631;28;20054;-67
2024/01/03 01:50:31;;;;;;;19.40;11.80;;;;;;;;;;1035849;28;20045;-67
2024/01/03 01:51:02;;;;;;;19.77;10.90;;;;;;;;;;1034313;28;20061;-67
2024/01/03 01:51:35;;;;;;;18.20;10.48;;;;;;;;;;1033177;28;20449;-67
2024/01/03 01:52:10;;;;;;;16.63;9.95;;;;;;;;;;1034945;28;20057;-66
2024/01/03 01:52:41;;;;;;;19.88;10.57;;;;;;;;;;1033986;28;20061;-67
2024/01/03 01:53:12;;;;;;;19.13;11.27;;;;;;;;;;1036401;28;20060;-67
2024/01/03 01:53:43;;;;;;;17.13;9.77;;;;;;;;;;1034217;28;20135;-67
2024/01/03 01:54:15;;;;;;;18.58;10.88;;;;;;;;;;1035312;28;20103;-66
2024/01/03 01:54:46;;;;;;;19.50;10.07;;;;;;;;;;1033842;28;20050;-67
2024/01/03 01:55:17;;;;;;;18.20;11.27;;;;;;;;;;1034346;28;20034;-66
2024/01/03 01:55:48;;;;;;;19.92;10.52;;;;;;;;;;1035324;28;20410;-67
2024/01/03 01:56:20;;;;;;;20.23;10.60;;;;;;;;;;1034382;28;20449;-66
2024/01/03 01:56:51;;;;;;;16.38;10.75;;;;;;;;;;1033750;28;20098;-67
2024/01/03 01:57:21;;;;;;;15.10;10.07;;;;;;;;;;1035934;28;20111;-67
2024/01/03 01:57:52;;;;;;;17.33;11.70;;;;;;;;;;1036102;28;20061;-66
2024/01/03 01:58:23;;;;;;;20.67;10.75;;;;;;;;;;1036686;28;20045;-66
2024/01/03 01:58:53;;;;;;;19.80;11.13;;;;;;;;;;1033756;28;20069;-66
2024/01/03 01:59:24;;;;;;;20.83;10.32;;;;;;;;;;1035541;28;20620;-66
2024/01/03 01:59:55;;;;;;;18.92;11.38;;;;;;;;;;1037211;28;20045;-67
2024/01/03 02:00:26;;;;;;;15.77;10.43;;;;;;;;;;1036356;28;20049;-66
2024/01/03 02:00:57;;;;;;;19.05;10.65;;;;;;;;;;1037137;28;20049;-67
2024/01/03 02:01:29;;;;;;;17.13;9.65;;;;;;;;;;1034257;28;20095;-66
2024/01/03 02:02:00;;;;;;;16.92;10.07;;;;;;;;;;1032997;28;20121;-66
2024/01/03 02:02:31;;;;;;;17.42;10.18;;;;;;;;;;1034228;28;20056;-67
2024/01/03 02:03:02;;;;;;;16.85;10.10;;;;;;;;;;1033873;28;20060;-67
2024/01/03 02:03:35;;;;;;;18.70;10.32;;;;;;;;;;1034757;28;20053;-67
2024/01/03 02:04:08;;;;;;;17.42;10.02;;;;;;;;;;1035221;28;20053;-67
2024/01/03 02:04:39;;;;;;;16.33;9.82;;;;;;;;;;1033794;28;20512;-67
2024/01/03 02:05:10;;;;;;;18.23;10.98;;;;;;;;;;1035423;28;20567;-67
2024/01/03 02:05:42;;;;;;;22.05;10.95;;;;;;;;;;1034989;28;20141;-67
2024/01/03 02:06:13;;;;;;;17.33;10.18;;;;;;;;;;1034078;28;20463;-67
2024/01/03 02:06:44;;;;;;;19.10;10.20;;;;;;;;;;1034563;28;20465;-67
2024/01/03 02:07:15;;;;;;;20.13;10.52;;;;;;;;;;1034042;28;20533;-67
2024/01/03 02:07:45;;;;;;;17.83;11.20;;;;;;;;;;1034684;28;20056;-66
2024/01/03 02:08:16;;;;;;;17.60;10.98;;;;;;;;;;1034916;28;20046;-67
2024/01/03 02:08:46;;;;;;;17.67;10.40;;;;;;;;;;1034873;28;20046;-67
2024/01/03 02:09:17;;;;;;;18.40;10.15;;;;;;;;;;1034695;28;23264;-67
2024/01/03 02:09:47;;;;;;;16.70;9.70;;;;;;;;;;1036908;28;20053;-66
2024/01/03 02:10:18;;;;;;;16.27;10.52;;;;;;;;;;1037731;28;20045;-67
2024/01/03 02:10:48;;;;;;;17.88;10.63;;;;;;;;;;1036491;28;20048;-67
2024/01/03 02:11:19;;;;;;;20.80;9.63;;;;;;;;;;1036620;28;20132;-67
2024/01/03 02:11:49;;;;;;;22.42;11.85;;;;;;;;;;1035002;28;20046;-66
2024/01/03 02:12:27;;;;;;;15.77;10.30;;;;;;;;;;1035800;28;20675;-66
2024/01/03 02:12:57;;;;;;;18.13;9.93;;;;;;;;;;1037542;28;20037;-65
2024/01/03 02:13:27;;;;;;;16.73;10.07;;;;;;;;;;1035652;28;20045;-67
2024/01/03 02:13:58;;;;;;;15.57;9.80;;;;;;;;;;1035017;28;20056;-66
2024/01/03 02:14:28;;;;;;;16.85;9.95;;;;;;;;;;1036777;28;20128;-66
2024/01/03 02:14:59;;;;;;;21.13;10.48;;;;;;;;;;1034493;28;20119;-67
2024/01/03 02:15:30;;;;;;;18.30;10.20;;;;;;;;;;1034801;28;20049;-66
2024/01/03 02:16:01;;;;;;;17.33;9.68;;;;;;;;;;1034371;28;20474;-66
2024/01/03 02:16:31;;;;;;;18.33;10.70;;;;;;;;;;1034600;28;20386;-67
2024/01/03 02:17:02;;;;;;;17.23;10.95;;;;;;;;;;1034164;28;23314;-66
2024/01/03 02:17:35;;;;;;;18.80;11.20;;;;;;;;;;1034708;28;20490;-67
2024/01/03 02:18:08;;;;;;;17.92;10.32;;;;;;;;;;1035774;28;20486;-65
2024/01/03 02:18:40;;;;;;;18.75;9.95;;;;;;;;;;1034838;28;20049;-66
2024/01/03 02:19:11;;;;;;;18.17;10.32;;;;;;;;;;1036692;28;20499;-67
2024/01/03 02:19:41;;;;;;;18.50;10.52;;;;;;;;;;1034678;28;20390;-66
2024/01/03 02:20:12;;;;;;;16.88;10.27;;;;;;;;;;1034663;28;20045;-67
2024/01/03 02:20:43;;;;;;;17.40;10.60;;;;;;;;;;1034947;28;20493;-67
2024/01/03 02:21:15;;;;;;;17.27;10.20;;;;;;;;;;1035993;28;20049;-66
2024/01/03 02:21:46;;;;;;;16.67;9.82;;;;;;;;;;1035590;28;20061;-66
2024/01/03 02:22:16;;;;;;;15.43;9.82;;;;;;;;;;1034832;28;20062;-67
2024/01/03 02:22:47;;;;;;;15.38;10.02;;;;;;;;;;1034596;28;20042;-65
2024/01/03 02:23:17;;;;;;;15.77;10.65;;;;;;;;;;1036422;28;20083;-67
2024/01/03 02:23:48;;;;;;;21.13;10.52;;;;;;;;;;1035043;28;20155;-65
2024/01/03 02:24:18;;;;;;;18.20;10.32;;;;;;;;;;1036219;28;20179;-67
2024/01/03 02:24:49;;;;;;;20.17;10.52;;;;;;;;;;1038513;28;20077;-67
2024/01/03 02:25:19;;;;;;;17.05;10.20;;;;;;;;;;1036127;28;20108;-66
2024/01/03 02:25:50;;;;;;;18.15;9.95;;;;;;;;;;1035170;28;20135;-67
2024/01/03 02:26:21;;;;;;;17.33;9.63;;;;;;;;;;1034864;28;20791;-65
2024/01/03 02:26:51;;;;;;;18.30;10.50;;;;;;;;;;1034898;28;20058;-67
2024/01/03 02:27:21;;;;;;;15.52;10.50;;;;;;;;;;1035350;28;20100;-67
2024/01/03 02:27:52;;;;;;;19.65;10.18;;;;;;;;;;1034325;28;20091;-67
2024/01/03 02:28:23;;;;;;;18.92;10.60;;;;;;;;;;1036241;28;20056;-66
2024/01/03 02:28:54;;;;;;;19.25;10.10;;;;;;;;;;1034654;28;20045;-67
2024/01/03 02:29:24;;;;;;;15.07;9.98;;;;;;;;;;1035758;28;20186;-66
2024/01/03 02:29:55;;;;;;;20.40;11.23;;;;;;;;;;1036345;28;20054;-67
2024/01/03 02:30:26;;;;;;;17.10;10.43;;;;;;;;;;1037511;28;20045;-66
2024/01/03 02:30:56;;;;;;;17.70;10.40;;;;;;;;;;1035083;28;20056;-67
2024/01/03 02:31:27;;;;;;;19.67;10.90;;;;;;;;;;1035165;28;20046;-67
2024/01/03 02:31:57;;;;;;;17.30;10.15;;;;;;;;;;1034779;28;20053;-66
2024/01/03 02:32:27;;;;;;;17.05;9.75;;;;;;;;;;1034710;28;20531;-67
2024/01/03 02:32:58;;;;;;;18.00;9.80;;;;;;;;;;1034515;28;20803;-65
2024/01/03 02:33:28;;;;;;;18.15;10.00;;;;;;;;;;1034931;28;20160;-67
2024/01/03 02:33:59;;;;;;;16.88;9.88;;;;;;;;;;1034454;28;20060;-67
2024/01/03 02:34:31;;;;;;;16.58;9.73;;;;;;;;;;1035512;28;20053;-65
2024/01/03 02:35:01;;;;;;;17.10;9.95;;;;;;;;;;1035915;28;20094;-66
2024/01/03 02:35:32;;;;;;;16.13;10.45;;;;;;;;;;1035117;28;20042;-67
2024/01/03 02:36:03;;;;;;;18.52;11.05;;;;;;;;;;1035127;28;20049;-68
2024/01/03 02:36:33;;;;;;;15.05;9.40;;;;;;;;;;1033997;28;20048;-66
2024/01/03 02:37:04;;;;;;;17.63;10.27;;;;;;;;;;1034865;28;20096;-65
2024/01/03 02:37:35;;;;;;;15.05;9.25;;;;;;;;;;1034289;28;20053;-67
2024/01/03 02:38:06;;;;;;;15.25;9.43;;;;;;;;;;1034071;28;20062;-67
2024/01/03 02:38:37;;;;;;;15.27;9.43;;;;;;;;;;1035167;28;20485;-64
2024/01/03 02:39:07;;;;;;;18.60;9.30;;;;;;;;;;1034063;28;20056;-67
2024/01/03 02:39:38;;;;;;;17.63;10.23;;;;;;;;;;1034547;28;20520;-67
2024/01/03 02:40:08;;;;;;;16.02;9.88;;;;;;;;;;1035956;28;20049;-66
2024/01/03 02:40:39;;;;;;;15.07;10.07;;;;;;;;;;1036609;28;20060;-66
2024/01/03 02:41:09;;;;;;;16.42;10.05;;;;;;;;;;1037285;28;20049;-66
2024/01/03 02:41:40;;;;;;;18.80;11.48;;;;;;;;;;1034851;28;20046;-66
2024/01/03 02:42:11;;;;;;;15.95;10.02;;;;;;;;;;1036128;28;20053;-66
2024/01/03 02:42:41;;;;;;;19.48;9.88;;;;;;;;;;1034167;28;20136;-67
2024/01/03 02:43:12;;;;;;;16.17;9.63;;;;;;;;;;1035197;28;20061;-65
2024/01/03 02:43:42;;;;;;;15.48;9.45;;;;;;;;;;1035291;28;23222;-67
2024/01/03 02:44:13;;;;;;;17.55;10.05;;;;;;;;;;1035650;28;20829;-67
2024/01/03 02:44:43;;;;;;;19.40;10.02;;;;;;;;;;1035532;28;20044;-66
2024/01/03 02:45:14;;;;;;;14.98;9.40;;;;;;;;;;1035961;28;20111;-66
2024/01/03 02:45:45;;;;;;;17.88;11.23;;;;;;;;;;1035513;28;20057;-67
2024/01/03 02:46:19;;;;;;;16.25;9.73;;;;;;;;;;1035430;28;20042;-66
2024/01/03 02:46:49;;;;;;;15.07;9.48;;;;;;;;;;1033627;28;20899;-66
2024/01/03 02:47:20;;;;;;;18.40;9.95;;;;;;;;;;1035754;28;20072;-66
2024/01/03 02:47:50;;;;;;;14.82;9.70;;;;;;;;;;1034621;28;20056;-67
2024/01/03 02:48:21;;;;;;;14.35;9.00;;;;;;;;;;1034290;28;20054;-66
2024/01/03 02:48:52;;;;;;;16.13;9.95;;;;;;;;;;1034331;28;20136;-66
2024/01/03 02:49:22;;;;;;;12.80;9.18;;;;;;;;;;1035220;28;20041;-66
2024/01/03 02:49:57;;;;;;;13.82;9.68;;;;;;;;;;1035274;28;20412;-67
2024/01/03 02:50:28;;;;;;;14.25;9.18;;;;;;;;;;1034514;28;20086;-66
2024/01/03 02:50:58;;;;;;;14.85;9.50;;;;;;;;;;1034624;28;20076;-67
2024/01/03 02:51:29;;;;;;;15.48;9.35;;;;;;;;;;1034775;28;20045;-66
2024/01/03 02:52:00;;;;;;;17.60;9.32;;;;;;;;;;1033531;28;20537;-66
2024/01/03 02:52:31;;;;;;;15.02;9.30;;;;;;;;;;1035392;28;20490;-66
2024/01/03 02:53:02;;;;;;;13.52;8.77;;;;;;;;;;1034285;28;20050;-66
2024/01/03 02:53:32;;;;;;;16.05;9.60;;;;;;;;;;1034904;28;20149;-66
2024/01/03 02:54:04;;;;;;;17.60;10.00;;;;;;;;;;1033102;28;20057;-66
2024/01/03 02:54:34;;;;;;;17.27;9.63;;;;;;;;;;1035106;28;20053;-66
2024/01/03 02:55:05;;;;;;;15.32;9.60;;;;;;;;;;1037798;28;20184;-66
2024/01/03 02:55:36;;;;;;;15.77;9.65;;;;;;;;;;1038091;28;20040;-67
2024/01/03 02:56:07;;;;;;;14.60;8.13;;;;;;;;;;1036912;28;20048;-67
2024/01/03 02:56:39;;;;;;;17.05;9.38;;;;;;;;;;1036720;28;20149;-66
2024/01/03 02:57:11;;;;;;;17.08;9.68;;;;;;;;;;1036703;28;20054;-67
2024/01/03 02:57:41;;;;;;;16.65;8.55;;;;;;;;;;1037252;28;20149;-67
2024/01/03 02:58:12;;;;;;;17.30;9.35;;;;;;;;;;1038319;28;20465;-66
2024/01/03 02:58:42;;;;;;;13.45;8.63;;;;;;;;;;1036401;28;20059;-66
2024/01/03 02:59:13;;;;;;;15.38;9.25;;;;;;;;;;1035362;28;20061;-65
2024/01/03 02:59:43;;;;;;;16.77;9.90;;;;;;;;;;1034691;28;20049;-66
2024/01/03 03:00:14;;;;;;;15.35;9.35;;;;;;;;;;1035551;28;20131;-66
2024/01/03 03:00:45;;;;;;;16.38;9.20;;;;;;;;;;1035219;28;20743;-66
2024/01/03 03:01:15;;;;;;;15.90;9.55;;;;;;;;;;1034615;28;20415;-67
2024/01/03 03:01:45;;;;;;;18.42;9.57;;;;;;;;;;1035038;28;20060;-67
2024/01/03 03:02:16;;;;;;;15.25;9.45;;;;;;;;;;1035110;28;20458;-67
2024/01/03 03:02:46;;;;;;;14.38;9.27;;;;;;;;;;1035880;28;20505;-66